This is the latest recevied weather packets stored in our database for station/object VE7OTD. If no packets are shown the sender has not sent any weather packets the latest 10 day(s).
| Time | Temp. | Humidity | Pressure | Rain* | Wind** | Luminosity | Snow |
|---|---|---|---|---|---|---|---|
| 1778046417 | 14.44° C | 87% | 1013.3 hPa | 0 mm | - | - | - |
| 1778044584 | 14.44° C | 84% | 1013.2 hPa | 0 mm | - | - | - |
| 1778042748 | 15° C | 84% | 1012.9 hPa | 0 mm | - | - | - |
| 1778040932 | - | - | 1012.6 hPa | 0 mm | - | - | - |
| 1778039117 | 16.11° C | 75% | 1012.3 hPa | 0 mm | - | - | - |
| 1778037302 | 17.22° C | 69% | 1012.2 hPa | 0 mm | - | - | - |
| 1778035488 | 18.33° C | 62% | 1012 hPa | 0 mm | - | - | - |
| 1778033672 | - | - | 1012 hPa | 0 mm | - | - | - |
| 1778031857 | - | - | 1011.9 hPa | 0 mm | - | - | - |
| 1778030043 | - | - | 1012 hPa | 0 mm | - | - | - |
| 1778028228 | 20.56° C | 56% | 1012.1 hPa | 0 mm | - | - | - |
| 1778026411 | 21.11° C | 55% | 1012.2 hPa | 0 mm | - | - | - |
| 1778024583 | 21.11° C | 55% | 1012.5 hPa | 0 mm | - | - | - |
| 1778022782 | 21.67° C | 55% | 1012.7 hPa | 0 mm | - | - | - |
| 1778020966 | 21.67° C | 54% | 1012.9 hPa | 0 mm | - | - | - |
| 1778019151 | 22.22° C | 53% | 1013.1 hPa | 0 mm | - | - | - |
| 1778017336 | 22.22° C | 54% | 1013.3 hPa | 0 mm | - | - | - |
| 1778015521 | 22.22° C | 53% | 1013.5 hPa | 0 mm | - | - | - |
| 1778013705 | 22.78° C | 55% | 1013.7 hPa | 0 mm | - | - | - |
| 1778011891 | 21.67° C | 55% | 1013.8 hPa | 0 mm | - | - | - |
| 1778010076 | 22.22° C | 56% | 1013.9 hPa | 0 mm | - | - | - |
| 1778008261 | 22.22° C | 53% | 1013.7 hPa | 0 mm | - | - | - |
| 1778006445 | 21.11° C | 59% | 1013.7 hPa | 0 mm | - | - | - |
| 1778004630 | 20.56° C | 63% | 1013.7 hPa | 0 mm | - | - | - |
| 1778002816 | 20° C | 64% | 1013.5 hPa | 0 mm | - | - | - |
* Rain latest hour (hover to see other rain measurements)
** Current wind speed in m/s (hover to see current wind gust speed)